sensor_id;sensor_type;location;lat;lon;timestamp;P1;durP1;ratioP1;P2;durP2;ratioP2
23555;SDS011;11956;53.184;8.578;2023-04-12T00:00:38;8.85;;;2.95;;
23555;SDS011;11956;53.184;8.578;2023-04-12T00:03:39;7.60;;;3.03;;
23555;SDS011;11956;53.184;8.578;2023-04-12T00:06:41;13.40;;;2.95;;
23555;SDS011;11956;53.184;8.578;2023-04-12T00:09:42;8.55;;;2.85;;
23555;SDS011;11956;53.184;8.578;2023-04-12T00:12:43;10.35;;;2.42;;
23555;SDS011;11956;53.184;8.578;2023-04-12T00:15:44;9.00;;;2.58;;
23555;SDS011;11956;53.184;8.578;2023-04-12T00:18:45;6.55;;;2.60;;
23555;SDS011;11956;53.184;8.578;2023-04-12T00:21:46;10.00;;;2.30;;
23555;SDS011;11956;53.184;8.578;2023-04-12T00:24:47;8.60;;;1.75;;
23555;SDS011;11956;53.184;8.578;2023-04-12T00:27:48;9.52;;;2.65;;
23555;SDS011;11956;53.184;8.578;2023-04-12T00:30:49;9.38;;;2.00;;
23555;SDS011;11956;53.184;8.578;2023-04-12T00:33:49;8.90;;;1.83;;
23555;SDS011;11956;53.184;8.578;2023-04-12T00:36:50;7.32;;;1.90;;
23555;SDS011;11956;53.184;8.578;2023-04-12T00:39:51;11.60;;;2.80;;
23555;SDS011;11956;53.184;8.578;2023-04-12T00:42:52;14.35;;;3.00;;
23555;SDS011;11956;53.184;8.578;2023-04-12T00:45:53;8.60;;;2.45;;
23555;SDS011;11956;53.184;8.578;2023-04-12T00:48:59;10.00;;;2.30;;
23555;SDS011;11956;53.184;8.578;2023-04-12T00:52:08;11.35;;;2.67;;
23555;SDS011;11956;53.184;8.578;2023-04-12T00:55:10;9.05;;;2.80;;
23555;SDS011;11956;53.184;8.578;2023-04-12T00:58:12;12.63;;;3.35;;
23555;SDS011;11956;53.184;8.578;2023-04-12T01:01:13;14.45;;;4.30;;
23555;SDS011;11956;53.184;8.578;2023-04-12T01:04:16;15.65;;;5.07;;
23555;SDS011;11956;53.184;8.578;2023-04-12T01:10:35;13.98;;;3.47;;
23555;SDS011;11956;53.184;8.578;2023-04-12T01:14:02;10.35;;;3.28;;
23555;SDS011;11956;53.184;8.578;2023-04-12T01:17:24;8.82;;;2.95;;
23555;SDS011;11956;53.184;8.578;2023-04-12T01:20:34;19.65;;;4.75;;
23555;SDS011;11956;53.184;8.578;2023-04-12T01:26:57;22.80;;;7.25;;
23555;SDS011;11956;53.184;8.578;2023-04-12T01:30:00;24.02;;;6.88;;
23555;SDS011;11956;53.184;8.578;2023-04-12T01:33:05;24.67;;;6.65;;
23555;SDS011;11956;53.184;8.578;2023-04-12T01:36:15;21.92;;;6.88;;
23555;SDS011;11956;53.184;8.578;2023-04-12T01:39:20;16.63;;;5.57;;
23555;SDS011;11956;53.184;8.578;2023-04-12T01:42:22;17.42;;;5.78;;
23555;SDS011;11956;53.184;8.578;2023-04-12T01:45:23;17.23;;;4.85;;
23555;SDS011;11956;53.184;8.578;2023-04-12T01:48:24;15.63;;;4.22;;
23555;SDS011;11956;53.184;8.578;2023-04-12T01:51:31;14.23;;;3.95;;
23555;SDS011;11956;53.184;8.578;2023-04-12T01:54:40;13.47;;;4.27;;
23555;SDS011;11956;53.184;8.578;2023-04-12T01:57:43;14.85;;;3.78;;
23555;SDS011;11956;53.184;8.578;2023-04-12T02:00:48;9.60;;;3.33;;
23555;SDS011;11956;53.184;8.578;2023-04-12T02:03:51;7.43;;;2.35;;
23555;SDS011;11956;53.184;8.578;2023-04-12T02:06:52;10.93;;;2.63;;
23555;SDS011;11956;53.184;8.578;2023-04-12T02:09:54;7.75;;;1.77;;
23555;SDS011;11956;53.184;8.578;2023-04-12T02:12:58;6.28;;;2.00;;
23555;SDS011;11956;53.184;8.578;2023-04-12T02:16:04;11.25;;;1.83;;
23555;SDS011;11956;53.184;8.578;2023-04-12T02:19:07;9.43;;;2.20;;
23555;SDS011;11956;53.184;8.578;2023-04-12T02:22:09;7.70;;;1.73;;
23555;SDS011;11956;53.184;8.578;2023-04-12T02:25:10;5.65;;;1.80;;
23555;SDS011;11956;53.184;8.578;2023-04-12T02:28:12;6.72;;;2.10;;
23555;SDS011;11956;53.184;8.578;2023-04-12T02:31:15;5.45;;;1.48;;
23555;SDS011;11956;53.184;8.578;2023-04-12T02:34:17;6.82;;;1.90;;
23555;SDS011;11956;53.184;8.578;2023-04-12T02:37:27;7.05;;;1.98;;
23555;SDS011;11956;53.184;8.578;2023-04-12T02:40:28;7.10;;;2.08;;
23555;SDS011;11956;53.184;8.578;2023-04-12T02:43:30;5.32;;;1.77;;
23555;SDS011;11956;53.184;8.578;2023-04-12T02:46:35;5.50;;;1.58;;
23555;SDS011;11956;53.184;8.578;2023-04-12T02:49:36;7.00;;;2.00;;
23555;SDS011;11956;53.184;8.578;2023-04-12T02:52:38;12.40;;;2.42;;
23555;SDS011;11956;53.184;8.578;2023-04-12T02:55:42;9.85;;;2.70;;
23555;SDS011;11956;53.184;8.578;2023-04-12T02:58:45;10.10;;;2.70;;
23555;SDS011;11956;53.184;8.578;2023-04-12T03:01:53;10.35;;;2.65;;
23555;SDS011;11956;53.184;8.578;2023-04-12T03:04:59;10.23;;;2.42;;
23555;SDS011;11956;53.184;8.578;2023-04-12T03:08:11;8.73;;;2.10;;
23555;SDS011;11956;53.184;8.578;2023-04-12T03:11:22;4.93;;;2.25;;
23555;SDS011;11956;53.184;8.578;2023-04-12T03:14:23;6.28;;;1.83;;
23555;SDS011;11956;53.184;8.578;2023-04-12T03:17:25;10.88;;;2.45;;
23555;SDS011;11956;53.184;8.578;2023-04-12T03:20:28;6.18;;;2.45;;
23555;SDS011;11956;53.184;8.578;2023-04-12T03:23:37;8.15;;;2.40;;
23555;SDS011;11956;53.184;8.578;2023-04-12T03:26:48;8.48;;;2.25;;
23555;SDS011;11956;53.184;8.578;2023-04-12T03:29:54;5.07;;;1.77;;
23555;SDS011;11956;53.184;8.578;2023-04-12T03:32:57;7.57;;;2.40;;
23555;SDS011;11956;53.184;8.578;2023-04-12T03:35:59;6.18;;;2.10;;
23555;SDS011;11956;53.184;8.578;2023-04-12T03:39:03;9.27;;;2.67;;
23555;SDS011;11956;53.184;8.578;2023-04-12T03:45:08;6.13;;;2.15;;
23555;SDS011;11956;53.184;8.578;2023-04-12T03:48:10;8.40;;;2.65;;
23555;SDS011;11956;53.184;8.578;2023-04-12T03:51:15;7.07;;;2.28;;
23555;SDS011;11956;53.184;8.578;2023-04-12T03:54:19;8.65;;;2.75;;
23555;SDS011;11956;53.184;8.578;2023-04-12T03:57:29;7.22;;;2.38;;
23555;SDS011;11956;53.184;8.578;2023-04-12T04:00:30;6.93;;;2.40;;
23555;SDS011;11956;53.184;8.578;2023-04-12T04:03:41;7.78;;;2.80;;
23555;SDS011;11956;53.184;8.578;2023-04-12T04:06:52;10.55;;;3.08;;
23555;SDS011;11956;53.184;8.578;2023-04-12T04:09:54;10.68;;;3.03;;
23555;SDS011;11956;53.184;8.578;2023-04-12T04:12:57;9.63;;;3.38;;
23555;SDS011;11956;53.184;8.578;2023-04-12T04:15:58;8.20;;;3.00;;
23555;SDS011;11956;53.184;8.578;2023-04-12T04:19:03;6.70;;;2.92;;
23555;SDS011;11956;53.184;8.578;2023-04-12T04:22:04;6.95;;;3.35;;
23555;SDS011;11956;53.184;8.578;2023-04-12T04:25:06;13.73;;;3.70;;
23555;SDS011;11956;53.184;8.578;2023-04-12T04:28:12;9.02;;;3.75;;
23555;SDS011;11956;53.184;8.578;2023-04-12T04:31:16;7.85;;;3.75;;
23555;SDS011;11956;53.184;8.578;2023-04-12T04:34:20;8.63;;;3.15;;
23555;SDS011;11956;53.184;8.578;2023-04-12T04:37:22;10.13;;;3.97;;
23555;SDS011;11956;53.184;8.578;2023-04-12T04:40:24;9.80;;;3.72;;
23555;SDS011;11956;53.184;8.578;2023-04-12T04:43:25;10.23;;;3.65;;
23555;SDS011;11956;53.184;8.578;2023-04-12T04:46:34;12.43;;;3.70;;
23555;SDS011;11956;53.184;8.578;2023-04-12T04:49:37;7.53;;;3.38;;
23555;SDS011;11956;53.184;8.578;2023-04-12T04:52:47;8.48;;;3.40;;
23555;SDS011;11956;53.184;8.578;2023-04-12T04:55:55;8.43;;;3.60;;
23555;SDS011;11956;53.184;8.578;2023-04-12T04:59:00;7.75;;;3.50;;
23555;SDS011;11956;53.184;8.578;2023-04-12T05:02:03;6.95;;;3.10;;
23555;SDS011;11956;53.184;8.578;2023-04-12T05:05:05;6.07;;;3.47;;
23555;SDS011;11956;53.184;8.578;2023-04-12T05:08:07;11.27;;;3.33;;
23555;SDS011;11956;53.184;8.578;2023-04-12T05:11:09;7.38;;;3.45;;
23555;SDS011;11956;53.184;8.578;2023-04-12T05:14:10;9.10;;;3.33;;
23555;SDS011;11956;53.184;8.578;2023-04-12T05:17:11;10.45;;;3.17;;
23555;SDS011;11956;53.184;8.578;2023-04-12T05:20:12;8.65;;;3.30;;
23555;SDS011;11956;53.184;8.578;2023-04-12T05:23:13;11.65;;;3.20;;
23555;SDS011;11956;53.184;8.578;2023-04-12T05:26:14;8.00;;;2.70;;
23555;SDS011;11956;53.184;8.578;2023-04-12T05:29:20;9.30;;;3.10;;
23555;SDS011;11956;53.184;8.578;2023-04-12T05:32:21;8.15;;;2.92;;
23555;SDS011;11956;53.184;8.578;2023-04-12T05:35:24;5.78;;;2.70;;
23555;SDS011;11956;53.184;8.578;2023-04-12T05:38:30;10.40;;;3.08;;
23555;SDS011;11956;53.184;8.578;2023-04-12T05:41:36;9.55;;;2.90;;
23555;SDS011;11956;53.184;8.578;2023-04-12T05:44:38;8.48;;;3.03;;
23555;SDS011;11956;53.184;8.578;2023-04-12T05:47:42;8.95;;;2.85;;
23555;SDS011;11956;53.184;8.578;2023-04-12T05:50:50;8.98;;;3.30;;
23555;SDS011;11956;53.184;8.578;2023-04-12T05:53:52;9.68;;;2.90;;
23555;SDS011;11956;53.184;8.578;2023-04-12T05:56:55;9.07;;;2.80;;
23555;SDS011;11956;53.184;8.578;2023-04-12T05:59:57;8.43;;;2.63;;
23555;SDS011;11956;53.184;8.578;2023-04-12T06:02:58;8.35;;;2.95;;
23555;SDS011;11956;53.184;8.578;2023-04-12T06:05:59;7.13;;;2.90;;
23555;SDS011;11956;53.184;8.578;2023-04-12T06:09:01;7.03;;;2.83;;
23555;SDS011;11956;53.184;8.578;2023-04-12T06:12:04;9.23;;;3.00;;
23555;SDS011;11956;53.184;8.578;2023-04-12T06:15:08;9.30;;;2.45;;
23555;SDS011;11956;53.184;8.578;2023-04-12T06:18:10;9.25;;;2.50;;
23555;SDS011;11956;53.184;8.578;2023-04-12T06:21:12;8.48;;;3.13;;
23555;SDS011;11956;53.184;8.578;2023-04-12T06:24:15;7.65;;;2.70;;
23555;SDS011;11956;53.184;8.578;2023-04-12T06:27:16;10.77;;;2.60;;
23555;SDS011;11956;53.184;8.578;2023-04-12T06:30:17;8.80;;;2.85;;
23555;SDS011;11956;53.184;8.578;2023-04-12T06:33:20;8.18;;;2.25;;
23555;SDS011;11956;53.184;8.578;2023-04-12T06:36:22;7.63;;;2.30;;
23555;SDS011;11956;53.184;8.578;2023-04-12T06:39:23;9.18;;;2.47;;
23555;SDS011;11956;53.184;8.578;2023-04-12T06:42:24;9.45;;;2.83;;
23555;SDS011;11956;53.184;8.578;2023-04-12T06:48:29;8.05;;;2.40;;
23555;SDS011;11956;53.184;8.578;2023-04-12T06:51:30;5.45;;;2.40;;
23555;SDS011;11956;53.184;8.578;2023-04-12T06:54:31;8.40;;;2.13;;
23555;SDS011;11956;53.184;8.578;2023-04-12T06:57:35;8.30;;;2.15;;
23555;SDS011;11956;53.184;8.578;2023-04-12T07:00:36;6.85;;;2.13;;
23555;SDS011;11956;53.184;8.578;2023-04-12T07:03:37;6.95;;;1.98;;
23555;SDS011;11956;53.184;8.578;2023-04-12T07:06:38;9.38;;;2.38;;
23555;SDS011;11956;53.184;8.578;2023-04-12T07:09:38;7.43;;;2.00;;
23555;SDS011;11956;53.184;8.578;2023-04-12T07:12:39;9.15;;;2.75;;
23555;SDS011;11956;53.184;8.578;2023-04-12T07:15:41;8.98;;;2.40;;
23555;SDS011;11956;53.184;8.578;2023-04-12T07:18:43;6.93;;;2.00;;
23555;SDS011;11956;53.184;8.578;2023-04-12T07:21:44;7.20;;;1.90;;
23555;SDS011;11956;53.184;8.578;2023-04-12T07:24:45;10.25;;;2.17;;
23555;SDS011;11956;53.184;8.578;2023-04-12T07:27:47;11.55;;;1.85;;
23555;SDS011;11956;53.184;8.578;2023-04-12T07:30:48;7.10;;;2.33;;
23555;SDS011;11956;53.184;8.578;2023-04-12T07:33:50;8.82;;;2.22;;
23555;SDS011;11956;53.184;8.578;2023-04-12T07:36:51;5.32;;;2.05;;
23555;SDS011;11956;53.184;8.578;2023-04-12T07:39:51;8.25;;;1.80;;
23555;SDS011;11956;53.184;8.578;2023-04-12T07:42:52;7.93;;;1.83;;
23555;SDS011;11956;53.184;8.578;2023-04-12T07:45:54;6.15;;;2.00;;
23555;SDS011;11956;53.184;8.578;2023-04-12T07:48:55;8.35;;;1.63;;
23555;SDS011;11956;53.184;8.578;2023-04-12T07:51:56;8.02;;;2.20;;
23555;SDS011;11956;53.184;8.578;2023-04-12T07:54:57;5.25;;;1.85;;
23555;SDS011;11956;53.184;8.578;2023-04-12T07:57:58;6.70;;;2.08;;
23555;SDS011;11956;53.184;8.578;2023-04-12T08:01:00;5.47;;;2.05;;
23555;SDS011;11956;53.184;8.578;2023-04-12T08:04:00;5.22;;;1.80;;
23555;SDS011;11956;53.184;8.578;2023-04-12T08:07:02;7.43;;;2.22;;
23555;SDS011;11956;53.184;8.578;2023-04-12T08:10:03;7.32;;;2.78;;
23555;SDS011;11956;53.184;8.578;2023-04-12T08:13:05;9.25;;;2.45;;
23555;SDS011;11956;53.184;8.578;2023-04-12T08:16:06;9.23;;;2.40;;
23555;SDS011;11956;53.184;8.578;2023-04-12T08:19:08;9.90;;;2.63;;
23555;SDS011;11956;53.184;8.578;2023-04-12T08:22:09;6.70;;;2.13;;
23555;SDS011;11956;53.184;8.578;2023-04-12T08:25:10;7.60;;;2.55;;
23555;SDS011;11956;53.184;8.578;2023-04-12T08:28:12;6.78;;;2.25;;
23555;SDS011;11956;53.184;8.578;2023-04-12T08:31:13;8.02;;;2.72;;
23555;SDS011;11956;53.184;8.578;2023-04-12T08:34:17;8.43;;;2.30;;
23555;SDS011;11956;53.184;8.578;2023-04-12T08:37:19;6.82;;;2.50;;
23555;SDS011;11956;53.184;8.578;2023-04-12T08:40:20;5.97;;;2.50;;
23555;SDS011;11956;53.184;8.578;2023-04-12T08:43:22;7.25;;;2.80;;
23555;SDS011;11956;53.184;8.578;2023-04-12T08:46:28;7.93;;;2.47;;
23555;SDS011;11956;53.184;8.578;2023-04-12T08:49:33;8.05;;;2.50;;
23555;SDS011;11956;53.184;8.578;2023-04-12T08:52:34;9.00;;;2.83;;
23555;SDS011;11956;53.184;8.578;2023-04-12T08:55:37;9.00;;;2.65;;
23555;SDS011;11956;53.184;8.578;2023-04-12T08:58:38;6.80;;;3.15;;
23555;SDS011;11956;53.184;8.578;2023-04-12T09:01:43;6.43;;;2.83;;
23555;SDS011;11956;53.184;8.578;2023-04-12T09:04:51;8.75;;;3.17;;
23555;SDS011;11956;53.184;8.578;2023-04-12T09:07:52;8.07;;;2.88;;
23555;SDS011;11956;53.184;8.578;2023-04-12T09:10:53;9.60;;;3.08;;
23555;SDS011;11956;53.184;8.578;2023-04-12T09:13:54;10.00;;;3.50;;
23555;SDS011;11956;53.184;8.578;2023-04-12T09:16:56;7.07;;;3.40;;
23555;SDS011;11956;53.184;8.578;2023-04-12T09:19:57;8.15;;;3.25;;
23555;SDS011;11956;53.184;8.578;2023-04-12T09:22:58;13.45;;;4.47;;
23555;SDS011;11956;53.184;8.578;2023-04-12T09:26:00;8.90;;;4.03;;
23555;SDS011;11956;53.184;8.578;2023-04-12T09:29:01;8.50;;;4.10;;
23555;SDS011;11956;53.184;8.578;2023-04-12T09:32:04;11.35;;;4.68;;
23555;SDS011;11956;53.184;8.578;2023-04-12T09:35:07;11.90;;;5.15;;
23555;SDS011;11956;53.184;8.578;2023-04-12T09:38:09;9.40;;;5.50;;
23555;SDS011;11956;53.184;8.578;2023-04-12T09:44:26;10.32;;;5.20;;
23555;SDS011;11956;53.184;8.578;2023-04-12T09:47:37;12.40;;;5.32;;
23555;SDS011;11956;53.184;8.578;2023-04-12T09:50:39;12.93;;;5.78;;
23555;SDS011;11956;53.184;8.578;2023-04-12T09:53:40;11.73;;;5.85;;
23555;SDS011;11956;53.184;8.578;2023-04-12T09:56:45;11.52;;;6.13;;
23555;SDS011;11956;53.184;8.578;2023-04-12T09:59:48;9.18;;;5.72;;
23555;SDS011;11956;53.184;8.578;2023-04-12T10:02:54;11.43;;;6.65;;
23555;SDS011;11956;53.184;8.578;2023-04-12T10:05:55;8.38;;;6.07;;
23555;SDS011;11956;53.184;8.578;2023-04-12T10:08:56;14.10;;;7.13;;
23555;SDS011;11956;53.184;8.578;2023-04-12T10:11:58;10.65;;;6.13;;
23555;SDS011;11956;53.184;8.578;2023-04-12T10:15:05;9.93;;;6.78;;
23555;SDS011;11956;53.184;8.578;2023-04-12T10:18:21;10.95;;;6.65;;
23555;SDS011;11956;53.184;8.578;2023-04-12T10:21:23;12.52;;;6.28;;
23555;SDS011;11956;53.184;8.578;2023-04-12T10:24:24;14.40;;;7.90;;
23555;SDS011;11956;53.184;8.578;2023-04-12T10:27:27;13.20;;;7.78;;
23555;SDS011;11956;53.184;8.578;2023-04-12T10:30:29;10.63;;;7.05;;
23555;SDS011;11956;53.184;8.578;2023-04-12T10:33:31;12.07;;;7.35;;
23555;SDS011;11956;53.184;8.578;2023-04-12T10:36:51;11.02;;;6.72;;
23555;SDS011;11956;53.184;8.578;2023-04-12T10:39:53;10.30;;;6.75;;
23555;SDS011;11956;53.184;8.578;2023-04-12T10:50:30;10.98;;;6.25;;
23555;SDS011;11956;53.184;8.578;2023-04-12T10:53:31;9.02;;;5.82;;
23555;SDS011;11956;53.184;8.578;2023-04-12T10:56:38;10.10;;;6.85;;
23555;SDS011;11956;53.184;8.578;2023-04-12T11:03:02;10.15;;;6.45;;
23555;SDS011;11956;53.184;8.578;2023-04-12T11:06:10;9.60;;;6.10;;
23555;SDS011;11956;53.184;8.578;2023-04-12T11:12:40;10.82;;;6.13;;
23555;SDS011;11956;53.184;8.578;2023-04-12T11:15:52;8.82;;;6.15;;
23555;SDS011;11956;53.184;8.578;2023-04-12T11:18:55;11.77;;;7.40;;
23555;SDS011;11956;53.184;8.578;2023-04-12T11:21:59;11.13;;;7.47;;
23555;SDS011;11956;53.184;8.578;2023-04-12T11:25:01;10.27;;;6.70;;
23555;SDS011;11956;53.184;8.578;2023-04-12T11:28:02;9.73;;;6.35;;
23555;SDS011;11956;53.184;8.578;2023-04-12T11:31:05;12.35;;;6.68;;
23555;SDS011;11956;53.184;8.578;2023-04-12T11:34:06;10.15;;;6.40;;
23555;SDS011;11956;53.184;8.578;2023-04-12T11:37:07;10.07;;;7.22;;
23555;SDS011;11956;53.184;8.578;2023-04-12T11:40:09;9.65;;;5.90;;
23555;SDS011;11956;53.184;8.578;2023-04-12T11:43:10;12.35;;;6.82;;
23555;SDS011;11956;53.184;8.578;2023-04-12T11:46:18;10.85;;;6.43;;
23555;SDS011;11956;53.184;8.578;2023-04-12T11:49:20;8.95;;;6.50;;
23555;SDS011;11956;53.184;8.578;2023-04-12T11:52:29;10.25;;;5.90;;
23555;SDS011;11956;53.184;8.578;2023-04-12T11:55:31;11.65;;;6.93;;
23555;SDS011;11956;53.184;8.578;2023-04-12T11:58:32;8.95;;;6.25;;
23555;SDS011;11956;53.184;8.578;2023-04-12T12:01:33;7.25;;;6.15;;
23555;SDS011;11956;53.184;8.578;2023-04-12T12:04:35;8.98;;;6.35;;
23555;SDS011;11956;53.184;8.578;2023-04-12T12:07:37;9.90;;;6.20;;
23555;SDS011;11956;53.184;8.578;2023-04-12T12:10:38;8.80;;;6.97;;
23555;SDS011;11956;53.184;8.578;2023-04-12T12:13:46;9.75;;;6.72;;
23555;SDS011;11956;53.184;8.578;2023-04-12T12:16:55;9.75;;;6.32;;
23555;SDS011;11956;53.184;8.578;2023-04-12T12:19:58;8.75;;;5.85;;
23555;SDS011;11956;53.184;8.578;2023-04-12T12:23:00;7.35;;;6.07;;
23555;SDS011;11956;53.184;8.578;2023-04-12T12:26:02;8.95;;;6.72;;
23555;SDS011;11956;53.184;8.578;2023-04-12T12:29:05;8.32;;;6.38;;
23555;SDS011;11956;53.184;8.578;2023-04-12T12:32:08;7.68;;;5.75;;
23555;SDS011;11956;53.184;8.578;2023-04-12T12:35:11;8.30;;;6.40;;
23555;SDS011;11956;53.184;8.578;2023-04-12T12:38:14;9.40;;;7.05;;
23555;SDS011;11956;53.184;8.578;2023-04-12T12:41:19;6.97;;;5.55;;
23555;SDS011;11956;53.184;8.578;2023-04-12T12:44:23;6.43;;;5.38;;
23555;SDS011;11956;53.184;8.578;2023-04-12T12:47:24;5.72;;;4.93;;
23555;SDS011;11956;53.184;8.578;2023-04-12T12:50:26;8.40;;;7.00;;
23555;SDS011;11956;53.184;8.578;2023-04-12T12:53:32;7.18;;;5.40;;
23555;SDS011;11956;53.184;8.578;2023-04-12T12:56:33;9.85;;;5.95;;
23555;SDS011;11956;53.184;8.578;2023-04-12T12:59:37;7.70;;;5.18;;
23555;SDS011;11956;53.184;8.578;2023-04-12T13:02:38;5.28;;;4.50;;
23555;SDS011;11956;53.184;8.578;2023-04-12T13:05:39;5.38;;;4.70;;
23555;SDS011;11956;53.184;8.578;2023-04-12T13:08:40;4.93;;;4.43;;
23555;SDS011;11956;53.184;8.578;2023-04-12T13:11:41;7.32;;;5.45;;
23555;SDS011;11956;53.184;8.578;2023-04-12T13:14:42;6.88;;;5.57;;
23555;SDS011;11956;53.184;8.578;2023-04-12T13:17:42;4.80;;;4.40;;
23555;SDS011;11956;53.184;8.578;2023-04-12T13:20:43;5.22;;;4.82;;
23555;SDS011;11956;53.184;8.578;2023-04-12T13:23:45;6.70;;;4.57;;
23555;SDS011;11956;53.184;8.578;2023-04-12T13:26:45;7.57;;;6.20;;
23555;SDS011;11956;53.184;8.578;2023-04-12T13:29:46;8.15;;;6.80;;
23555;SDS011;11956;53.184;8.578;2023-04-12T13:32:47;5.22;;;4.72;;
23555;SDS011;11956;53.184;8.578;2023-04-12T13:35:48;7.30;;;5.50;;
23555;SDS011;11956;53.184;8.578;2023-04-12T13:38:49;6.30;;;5.13;;
23555;SDS011;11956;53.184;8.578;2023-04-12T13:41:50;6.82;;;5.78;;
23555;SDS011;11956;53.184;8.578;2023-04-12T13:44:51;8.07;;;5.47;;
23555;SDS011;11956;53.184;8.578;2023-04-12T13:47:52;5.95;;;5.35;;
23555;SDS011;11956;53.184;8.578;2023-04-12T13:50:53;4.88;;;4.35;;
23555;SDS011;11956;53.184;8.578;2023-04-12T13:53:54;6.75;;;5.40;;
23555;SDS011;11956;53.184;8.578;2023-04-12T13:56:55;5.05;;;3.17;;
23555;SDS011;11956;53.184;8.578;2023-04-12T13:59:57;5.47;;;4.57;;
23555;SDS011;11956;53.184;8.578;2023-04-12T14:02:58;5.32;;;4.45;;
23555;SDS011;11956;53.184;8.578;2023-04-12T14:06:00;4.35;;;3.88;;
23555;SDS011;11956;53.184;8.578;2023-04-12T14:09:01;3.70;;;3.10;;
23555;SDS011;11956;53.184;8.578;2023-04-12T14:15:05;4.07;;;3.17;;
23555;SDS011;11956;53.184;8.578;2023-04-12T14:18:07;4.82;;;4.40;;
23555;SDS011;11956;53.184;8.578;2023-04-12T14:21:08;4.85;;;3.28;;
23555;SDS011;11956;53.184;8.578;2023-04-12T14:24:09;5.18;;;3.50;;
23555;SDS011;11956;53.184;8.578;2023-04-12T14:27:10;5.43;;;3.50;;
23555;SDS011;11956;53.184;8.578;2023-04-12T14:30:11;4.30;;;3.92;;
23555;SDS011;11956;53.184;8.578;2023-04-12T14:33:13;4.35;;;3.95;;
23555;SDS011;11956;53.184;8.578;2023-04-12T14:36:13;5.50;;;4.68;;
23555;SDS011;11956;53.184;8.578;2023-04-12T14:39:14;3.78;;;3.47;;
23555;SDS011;11956;53.184;8.578;2023-04-12T14:42:16;4.25;;;3.85;;
23555;SDS011;11956;53.184;8.578;2023-04-12T14:45:17;5.63;;;4.72;;
23555;SDS011;11956;53.184;8.578;2023-04-12T14:48:19;6.25;;;5.65;;
23555;SDS011;11956;53.184;8.578;2023-04-12T14:51:20;5.47;;;4.97;;
23555;SDS011;11956;53.184;8.578;2023-04-12T14:54:21;6.60;;;5.32;;
23555;SDS011;11956;53.184;8.578;2023-04-12T14:57:22;6.03;;;4.53;;
23555;SDS011;11956;53.184;8.578;2023-04-12T15:00:23;8.30;;;6.38;;
23555;SDS011;11956;53.184;8.578;2023-04-12T15:03:24;5.53;;;5.03;;
23555;SDS011;11956;53.184;8.578;2023-04-12T15:06:25;6.30;;;5.70;;
23555;SDS011;11956;53.184;8.578;2023-04-12T15:09:29;5.20;;;4.68;;
23555;SDS011;11956;53.184;8.578;2023-04-12T15:12:30;5.97;;;5.30;;
23555;SDS011;11956;53.184;8.578;2023-04-12T15:15:34;5.50;;;5.00;;
23555;SDS011;11956;53.184;8.578;2023-04-12T15:18:36;5.47;;;4.97;;
23555;SDS011;11956;53.184;8.578;2023-04-12T15:21:38;6.20;;;5.05;;
23555;SDS011;11956;53.184;8.578;2023-04-12T15:24:39;5.88;;;4.88;;
23555;SDS011;11956;53.184;8.578;2023-04-12T15:27:40;5.13;;;3.85;;
23555;SDS011;11956;53.184;8.578;2023-04-12T15:30:43;5.50;;;4.80;;
23555;SDS011;11956;53.184;8.578;2023-04-12T15:33:43;5.35;;;4.82;;
23555;SDS011;11956;53.184;8.578;2023-04-12T15:36:46;5.30;;;4.15;;
23555;SDS011;11956;53.184;8.578;2023-04-12T15:39:47;6.65;;;5.20;;
23555;SDS011;11956;53.184;8.578;2023-04-12T15:42:48;5.20;;;4.38;;
23555;SDS011;11956;53.184;8.578;2023-04-12T15:45:49;5.25;;;4.47;;
23555;SDS011;11956;53.184;8.578;2023-04-12T15:48:53;4.82;;;4.43;;
23555;SDS011;11956;53.184;8.578;2023-04-12T15:51:54;4.68;;;4.25;;
23555;SDS011;11956;53.184;8.578;2023-04-12T15:54:56;5.72;;;4.68;;
23555;SDS011;11956;53.184;8.578;2023-04-12T15:57:56;6.40;;;5.80;;
23555;SDS011;11956;53.184;8.578;2023-04-12T16:00:57;5.18;;;4.35;;
23555;SDS011;11956;53.184;8.578;2023-04-12T16:03:58;4.63;;;4.22;;
23555;SDS011;11956;53.184;8.578;2023-04-12T16:06:59;5.65;;;5.15;;
23555;SDS011;11956;53.184;8.578;2023-04-12T16:10:01;4.82;;;4.40;;
23555;SDS011;11956;53.184;8.578;2023-04-12T16:13:02;7.78;;;5.30;;
23555;SDS011;11956;53.184;8.578;2023-04-12T16:16:04;8.95;;;6.70;;
23555;SDS011;11956;53.184;8.578;2023-04-12T16:19:06;6.13;;;5.53;;
23555;SDS011;11956;53.184;8.578;2023-04-12T16:22:07;8.70;;;7.07;;
23555;SDS011;11956;53.184;8.578;2023-04-12T16:25:08;7.18;;;5.63;;
23555;SDS011;11956;53.184;8.578;2023-04-12T16:28:09;7.95;;;6.80;;
23555;SDS011;11956;53.184;8.578;2023-04-12T16:31:11;6.60;;;6.00;;
23555;SDS011;11956;53.184;8.578;2023-04-12T16:34:14;7.35;;;6.63;;
23555;SDS011;11956;53.184;8.578;2023-04-12T16:37:15;8.70;;;7.70;;
23555;SDS011;11956;53.184;8.578;2023-04-12T16:40:16;8.38;;;7.55;;
23555;SDS011;11956;53.184;8.578;2023-04-12T16:43:17;10.43;;;8.25;;
23555;SDS011;11956;53.184;8.578;2023-04-12T16:46:18;9.40;;;8.50;;
23555;SDS011;11956;53.184;8.578;2023-04-12T16:49:20;10.75;;;9.65;;
23555;SDS011;11956;53.184;8.578;2023-04-12T16:52:22;9.10;;;7.97;;
23555;SDS011;11956;53.184;8.578;2023-04-12T16:55:22;8.52;;;7.72;;
23555;SDS011;11956;53.184;8.578;2023-04-12T16:58:24;10.50;;;8.38;;
23555;SDS011;11956;53.184;8.578;2023-04-12T17:01:25;10.57;;;8.73;;
23555;SDS011;11956;53.184;8.578;2023-04-12T17:04:26;8.55;;;7.68;;
23555;SDS011;11956;53.184;8.578;2023-04-12T17:07:27;10.18;;;8.63;;
23555;SDS011;11956;53.184;8.578;2023-04-12T17:10:28;10.82;;;8.68;;
23555;SDS011;11956;53.184;8.578;2023-04-12T17:13:29;10.98;;;9.80;;
23555;SDS011;11956;53.184;8.578;2023-04-12T17:16:30;12.15;;;10.13;;
23555;SDS011;11956;53.184;8.578;2023-04-12T17:19:31;12.13;;;8.75;;
23555;SDS011;11956;53.184;8.578;2023-04-12T17:22:31;5.40;;;1.83;;
23555;SDS011;11956;53.184;8.578;2023-04-12T17:25:32;8.43;;;2.00;;
23555;SDS011;11956;53.184;8.578;2023-04-12T17:28:34;12.80;;;2.42;;
23555;SDS011;11956;53.184;8.578;2023-04-12T17:31:38;9.68;;;2.22;;
23555;SDS011;11956;53.184;8.578;2023-04-12T17:34:39;7.95;;;2.85;;
23555;SDS011;11956;53.184;8.578;2023-04-12T17:37:41;12.70;;;3.47;;
23555;SDS011;11956;53.184;8.578;2023-04-12T17:40:42;13.23;;;3.55;;
23555;SDS011;11956;53.184;8.578;2023-04-12T17:43:43;12.07;;;3.25;;
23555;SDS011;11956;53.184;8.578;2023-04-12T17:46:46;13.85;;;3.17;;
23555;SDS011;11956;53.184;8.578;2023-04-12T17:49:47;11.13;;;2.92;;
23555;SDS011;11956;53.184;8.578;2023-04-12T17:52:48;17.38;;;3.45;;
23555;SDS011;11956;53.184;8.578;2023-04-12T17:55:49;15.55;;;3.10;;
23555;SDS011;11956;53.184;8.578;2023-04-12T17:58:49;14.23;;;3.28;;
23555;SDS011;11956;53.184;8.578;2023-04-12T18:01:51;13.45;;;3.60;;
23555;SDS011;11956;53.184;8.578;2023-04-12T18:04:52;10.23;;;3.15;;
23555;SDS011;11956;53.184;8.578;2023-04-12T18:07:53;13.43;;;3.35;;
23555;SDS011;11956;53.184;8.578;2023-04-12T18:10:56;17.17;;;4.00;;
23555;SDS011;11956;53.184;8.578;2023-04-12T18:13:57;13.93;;;4.38;;
23555;SDS011;11956;53.184;8.578;2023-04-12T18:16:58;16.38;;;4.20;;
23555;SDS011;11956;53.184;8.578;2023-04-12T18:19:58;13.98;;;3.50;;
23555;SDS011;11956;53.184;8.578;2023-04-12T18:22:59;14.38;;;4.00;;
23555;SDS011;11956;53.184;8.578;2023-04-12T18:26:03;11.88;;;3.42;;
23555;SDS011;11956;53.184;8.578;2023-04-12T18:29:05;15.80;;;4.18;;
23555;SDS011;11956;53.184;8.578;2023-04-12T18:32:06;11.85;;;4.05;;
23555;SDS011;11956;53.184;8.578;2023-04-12T18:35:07;12.98;;;3.50;;
23555;SDS011;11956;53.184;8.578;2023-04-12T18:38:08;16.75;;;4.22;;
23555;SDS011;11956;53.184;8.578;2023-04-12T18:41:12;15.80;;;4.88;;
23555;SDS011;11956;53.184;8.578;2023-04-12T18:44:14;8.13;;;3.55;;
23555;SDS011;11956;53.184;8.578;2023-04-12T18:47:18;10.68;;;3.10;;